createdAt,value
2023-05-12T00:04:44.631Z,98619.71
2023-05-12T00:10:06.657Z,98621.48
2023-05-12T00:15:28.428Z,98624.13
2023-05-12T00:20:50.433Z,98625.62
2023-05-12T00:26:12.073Z,98624.81
2023-05-12T00:31:33.818Z,98627.65
2023-05-12T00:36:55.531Z,98624.15
2023-05-12T00:42:17.454Z,98621.29
2023-05-12T00:47:40.069Z,98621.53
2023-05-12T00:53:02.136Z,98623.86
2023-05-12T00:58:24.111Z,98627.66
2023-05-12T01:03:46.349Z,98625.63
2023-05-12T01:09:08.852Z,98626.35
2023-05-12T01:14:31.343Z,98625.03
2023-05-12T01:19:55.386Z,98629.76
2023-05-12T01:25:19.869Z,98632.60
2023-05-12T01:30:42.625Z,98630.13
2023-05-12T01:36:06.251Z,98631.45
2023-05-12T01:41:32.078Z,98631.02
2023-05-12T01:46:53.966Z,98633.04
2023-05-12T01:52:16.453Z,98625.21
2023-05-12T01:57:38.041Z,98633.70
2023-05-12T02:02:59.996Z,98641.05
2023-05-12T02:08:21.835Z,98638.61
2023-05-12T02:13:46.643Z,98635.82
2023-05-12T02:19:08.865Z,98636.08
2023-05-12T02:24:31.234Z,98634.46
2023-05-12T02:29:54.128Z,98632.15
2023-05-12T02:35:16.734Z,98632.75
2023-05-12T02:40:38.843Z,98630.63
2023-05-12T02:46:00.930Z,98634.88
2023-05-12T02:51:23.377Z,98632.61
2023-05-12T02:56:44.865Z,98630.63
2023-05-12T03:02:07.217Z,98628.48
2023-05-12T03:07:29.404Z,98632.48
2023-05-12T03:12:51.203Z,98634.42
2023-05-12T03:18:15.280Z,98632.69
2023-05-12T03:23:37.489Z,98633.52
2023-05-12T03:28:59.417Z,98635.10
2023-05-12T03:34:21.040Z,98637.73
2023-05-12T03:39:43.881Z,98640.34
2023-05-12T03:45:07.182Z,98641.92
2023-05-12T03:50:29.055Z,98643.59
2023-05-12T03:55:51.337Z,98645.50
2023-05-12T04:01:13.317Z,98644.20
2023-05-12T04:06:36.786Z,98647.71
2023-05-12T04:11:59.052Z,98650.20
2023-05-12T04:17:20.840Z,98651.17
2023-05-12T04:22:44.421Z,98653.39
2023-05-12T04:28:10.079Z,98653.70
2023-05-12T04:33:40.687Z,98652.14
2023-05-12T04:39:02.601Z,98653.03
2023-05-12T04:44:24.481Z,98656.17
2023-05-12T04:49:46.434Z,98659.66
2023-05-12T04:55:09.910Z,98658.51
2023-05-12T05:00:31.966Z,98666.00
2023-05-12T05:05:55.421Z,98664.33
2023-05-12T05:11:18.025Z,98667.30
2023-05-12T05:16:40.722Z,98667.13
2023-05-12T05:22:02.421Z,98668.08
2023-05-12T05:27:24.269Z,98668.55
2023-05-12T05:32:46.379Z,98665.71
2023-05-12T05:38:08.095Z,98668.42
2023-05-12T05:43:30.263Z,98668.69
2023-05-12T05:48:52.912Z,98668.98
2023-05-12T05:54:15.106Z,98675.77
2023-05-12T05:59:37.073Z,98677.89
2023-05-12T06:05:00.266Z,98683.83
2023-05-12T06:10:22.463Z,98685.80
2023-05-12T06:15:45.649Z,98684.79
2023-05-12T06:21:09.568Z,98689.64
2023-05-12T06:26:31.420Z,98688.77
2023-05-12T06:31:53.283Z,98692.73
2023-05-12T06:37:14.925Z,98689.26
2023-05-12T06:42:39.576Z,98686.63
2023-05-12T06:48:06.086Z,98689.38
2023-05-12T06:53:27.922Z,98687.95
2023-05-12T06:58:49.993Z,98692.16
2023-05-12T07:04:11.950Z,98690.98
2023-05-12T07:09:34.050Z,98691.20
2023-05-12T07:14:56.295Z,98692.30
2023-05-12T07:20:20.130Z,98687.50
2023-05-12T07:25:44.235Z,98683.34
2023-05-12T07:31:07.383Z,98684.90
2023-05-12T07:36:29.607Z,98679.92
2023-05-12T07:41:53.602Z,98686.70
2023-05-12T07:47:16.037Z,98686.19
2023-05-12T07:52:46.653Z,98683.48
2023-05-12T07:58:08.554Z,98680.05
2023-05-12T08:03:30.374Z,98681.84
2023-05-12T08:08:52.000Z,98681.92
2023-05-12T08:14:14.048Z,98680.13
2023-05-12T08:19:35.960Z,98681.94
2023-05-12T08:24:57.799Z,98683.77
2023-05-12T08:30:19.324Z,98680.52
2023-05-12T08:35:41.330Z,98683.71
2023-05-12T08:41:11.103Z,98685.21
2023-05-12T08:46:33.614Z,98686.20
2023-05-12T08:51:58.168Z,98688.48
2023-05-12T08:57:22.234Z,98694.69
2023-05-12T09:02:53.102Z,98694.52
2023-05-12T09:08:15.825Z,98694.31
2023-05-12T09:13:56.600Z,98693.88
2023-05-12T09:19:21.649Z,98691.66
2023-05-12T09:24:43.535Z,98689.51
2023-05-12T09:30:08.408Z,98688.69
2023-05-12T09:35:30.246Z,98692.28
2023-05-12T09:40:51.968Z,98682.34
2023-05-12T09:46:14.822Z,98684.36
2023-05-12T09:51:36.730Z,98687.80
2023-05-12T09:57:03.760Z,98686.09
2023-05-12T10:02:26.341Z,98682.31
2023-05-12T10:07:50.981Z,98687.80
2023-05-12T10:13:14.399Z,98687.10
2023-05-12T10:18:36.402Z,98683.81
2023-05-12T10:24:01.677Z,98687.30
2023-05-12T10:29:30.301Z,98689.06
2023-05-12T10:34:52.754Z,98686.36
2023-05-12T10:40:24.643Z,98684.84
2023-05-12T10:45:46.524Z,98684.55
2023-05-12T10:51:10.168Z,98678.85
2023-05-12T10:56:43.977Z,98671.05
2023-05-12T11:02:15.798Z,98675.35
2023-05-12T11:07:37.971Z,98682.59
2023-05-12T11:13:00.842Z,98678.61
2023-05-12T11:18:24.398Z,98671.16
2023-05-12T11:23:51.024Z,98673.39
2023-05-12T11:29:12.542Z,98683.95
2023-05-12T11:34:34.596Z,98678.93
2023-05-12T11:39:56.838Z,98688.02
2023-05-12T11:45:29.390Z,98687.61
2023-05-12T11:50:51.438Z,98688.72
2023-05-12T11:56:23.952Z,98689.86
2023-05-12T12:01:48.832Z,98695.64
2023-05-12T12:07:10.866Z,98701.55
2023-05-12T12:12:32.905Z,98701.98
2023-05-12T12:17:54.671Z,98697.59
2023-05-12T12:23:16.648Z,98700.11
2023-05-12T12:28:41.792Z,98703.99
2023-05-12T12:34:07.506Z,98704.04
2023-05-12T12:39:29.201Z,98703.19
2023-05-12T12:44:51.561Z,98703.15
2023-05-12T12:50:14.050Z,98708.55
2023-05-12T12:55:36.671Z,98703.19
2023-05-12T13:00:59.320Z,98707.05
2023-05-12T13:06:23.240Z,98707.73
2023-05-12T13:11:45.099Z,98713.25
2023-05-12T13:17:08.343Z,98707.25
2023-05-12T13:22:30.217Z,98704.20
2023-05-12T13:27:52.747Z,98691.59
2023-05-12T13:33:14.980Z,98696.04
2023-05-12T13:38:42.197Z,98695.63
2023-05-12T13:44:04.092Z,98700.41
2023-05-12T13:49:27.162Z,98688.56
2023-05-12T13:54:49.355Z,98683.75
2023-05-12T14:00:11.747Z,98683.09
2023-05-12T14:05:39.239Z,98682.73
2023-05-12T14:11:01.348Z,98685.11
2023-05-12T14:16:23.210Z,98681.77
2023-05-12T14:21:45.490Z,98682.55
2023-05-12T14:27:07.760Z,98686.53
2023-05-12T14:32:32.195Z,98692.95
2023-05-12T14:37:54.581Z,98693.48
2023-05-12T14:43:17.112Z,98687.02
2023-05-12T14:48:38.957Z,98692.73
2023-05-12T14:54:01.578Z,98687.11
2023-05-12T14:59:25.112Z,98686.77
2023-05-12T15:04:48.747Z,98692.56
2023-05-12T15:10:11.091Z,98696.56
2023-05-12T15:15:34.123Z,98695.45
2023-05-12T15:20:56.345Z,98694.77
2023-05-12T15:26:31.906Z,98694.63
2023-05-12T15:31:55.505Z,98689.79
2023-05-12T15:37:18.389Z,98691.93
2023-05-12T15:42:40.971Z,98691.73
2023-05-12T15:48:03.798Z,98694.18
2023-05-12T15:53:25.783Z,98695.23
2023-05-12T15:58:48.113Z,98701.99
2023-05-12T16:04:10.081Z,98700.00
2023-05-12T16:09:32.069Z,98700.61
2023-05-12T16:14:54.098Z,98694.27
2023-05-12T16:20:18.240Z,98691.90
2023-05-12T16:25:42.176Z,98698.95
2023-05-12T16:31:05.005Z,98698.36
2023-05-12T16:36:26.836Z,98705.03
2023-05-12T16:41:48.658Z,98714.15
2023-05-12T16:47:10.195Z,98719.89
2023-05-12T16:52:31.867Z,98720.45
2023-05-12T16:57:53.750Z,98721.54
2023-05-12T17:03:15.858Z,98729.56
2023-05-12T17:08:40.155Z,98732.94
2023-05-12T17:14:21.279Z,98735.58
2023-05-12T17:20:40.494Z,98736.77
2023-05-12T17:26:08.256Z,98742.67
2023-05-12T17:31:30.337Z,98745.44
2023-05-12T17:36:53.311Z,98749.26
2023-05-12T17:42:15.237Z,98753.38
2023-05-12T17:47:37.289Z,98757.73
2023-05-12T17:53:03.695Z,98763.06
2023-05-12T17:58:26.551Z,98767.00
2023-05-12T18:03:48.370Z,98768.31
2023-05-12T18:09:10.507Z,98768.60
2023-05-12T18:14:45.391Z,98770.45
2023-05-12T18:20:47.159Z,98779.04
2023-05-12T18:26:50.932Z,98782.11
2023-05-12T18:32:21.922Z,98790.33
2023-05-12T18:38:06.900Z,98795.58
2023-05-12T18:44:07.661Z,98797.90
2023-05-12T18:49:34.805Z,98807.81
2023-05-12T18:54:58.814Z,98811.84
2023-05-12T19:00:42.351Z,98807.38
2023-05-12T19:06:04.576Z,98815.04
2023-05-12T19:11:35.037Z,98816.62
2023-05-12T19:17:39.341Z,98819.25
2023-05-12T19:23:42.507Z,98820.86
2023-05-12T19:29:31.951Z,98826.58
2023-05-12T19:35:20.650Z,98828.16
2023-05-12T19:40:45.688Z,98830.41
2023-05-12T19:46:07.838Z,98838.21
2023-05-12T19:51:29.940Z,98834.77
2023-05-12T19:56:56.997Z,98840.30
2023-05-12T20:03:18.949Z,98839.58
2023-05-12T20:08:44.288Z,98835.42
2023-05-12T20:14:06.273Z,98838.20
2023-05-12T20:19:28.033Z,98838.54
2023-05-12T20:24:49.565Z,98841.46
2023-05-12T20:30:12.759Z,98837.83
2023-05-12T20:35:34.754Z,98834.55
2023-05-12T20:40:56.648Z,98828.84
2023-05-12T20:46:18.556Z,98824.34
2023-05-12T20:51:40.711Z,98822.60
2023-05-12T20:57:02.536Z,98822.94
2023-05-12T21:02:25.775Z,98830.52
2023-05-12T21:07:47.513Z,98826.87
2023-05-12T21:13:09.536Z,98828.07
2023-05-12T21:18:31.504Z,98830.66
2023-05-12T21:23:53.283Z,98832.71
2023-05-12T21:29:15.224Z,98833.57
2023-05-12T21:34:37.025Z,98826.30
2023-05-12T21:39:59.338Z,98825.92
2023-05-12T21:45:21.667Z,98830.91
2023-05-12T21:50:43.481Z,98830.54
2023-05-12T21:56:06.145Z,98832.74
2023-05-12T22:01:30.207Z,98835.14
2023-05-12T22:06:51.894Z,98837.38
2023-05-12T22:12:17.840Z,98847.02
2023-05-12T22:18:58.410Z,98854.09
2023-05-12T22:24:19.899Z,98856.31
2023-05-12T22:29:41.877Z,98866.17
2023-05-12T22:35:03.976Z,98868.13
2023-05-12T22:40:27.254Z,98871.59
2023-05-12T22:45:52.503Z,98868.66
2023-05-12T22:51:14.173Z,98871.45
2023-05-12T22:56:35.903Z,98865.77
2023-05-12T23:01:57.784Z,98868.02
2023-05-12T23:07:19.414Z,98875.95
2023-05-12T23:12:41.335Z,98879.40
2023-05-12T23:18:03.430Z,98876.96
2023-05-12T23:23:25.152Z,98873.69
2023-05-12T23:28:47.114Z,98872.92
2023-05-12T23:34:09.045Z,98881.76
2023-05-12T23:39:31.326Z,98879.29
2023-05-12T23:44:54.284Z,98875.93
2023-05-12T23:50:16.262Z,98874.44
2023-05-12T23:55:38.385Z,98874.70
